createdAt,value
2024-01-15T00:01:53.911Z,98931.34
2024-01-15T00:04:21.467Z,98920.22
2024-01-15T00:06:50.601Z,98921.38
2024-01-15T00:09:17.871Z,98913.38
2024-01-15T00:11:45.283Z,98912.03
2024-01-15T00:14:13.171Z,98899.94
2024-01-15T00:16:41.940Z,98893.53
2024-01-15T00:19:09.631Z,98891.69
2024-01-15T00:21:36.845Z,98885.66
2024-01-15T00:24:06.064Z,98894.63
2024-01-15T00:26:33.491Z,98878.69
2024-01-15T00:29:00.726Z,98875.97
2024-01-15T00:31:28.222Z,98872.16
2024-01-15T00:33:55.930Z,98870.47
2024-01-15T00:36:23.228Z,98864.87
2024-01-15T00:38:50.491Z,98853.47
2024-01-15T00:41:17.903Z,98853.03
2024-01-15T00:43:50.392Z,98850.78
2024-01-15T00:46:18.627Z,98845.59
2024-01-15T00:48:46.310Z,98852.72
2024-01-15T00:51:13.636Z,98852.03
2024-01-15T00:53:41.444Z,98826.22
2024-01-15T00:56:08.537Z,98840.25
2024-01-15T00:58:35.666Z,98837.56
2024-01-15T01:01:03.243Z,98843.16
2024-01-15T01:03:30.943Z,98838.31
2024-01-15T01:05:58.292Z,98836.56
2024-01-15T01:08:25.898Z,98841.41
2024-01-15T01:10:53.044Z,98826.63
2024-01-15T01:13:20.467Z,98834.03
2024-01-15T01:15:48.258Z,98833.13
2024-01-15T01:18:15.612Z,98819.34
2024-01-15T01:20:42.967Z,98824.31
2024-01-15T01:23:10.475Z,98814.84
2024-01-15T01:25:37.725Z,98815.22
2024-01-15T01:28:05.061Z,98818.94
2024-01-15T01:30:32.598Z,98807.47
2024-01-15T01:32:59.842Z,98812.13
2024-01-15T01:35:27.056Z,98808.41
2024-01-15T01:37:54.476Z,98812.59
2024-01-15T01:40:21.692Z,98813.53
2024-01-15T01:42:49.682Z,98803.81
2024-01-15T01:45:17.313Z,98802.13
2024-01-15T01:47:44.656Z,98794.94
2024-01-15T01:50:14.083Z,98795.25
2024-01-15T01:52:42.004Z,98765.06
2024-01-15T01:55:10.648Z,98766.91
2024-01-15T01:57:38.014Z,98757.16
2024-01-15T02:00:06.317Z,98752.91
2024-01-15T02:02:38.736Z,98759.28
2024-01-15T02:05:07.418Z,98746.69
2024-01-15T02:07:36.927Z,98742.97
2024-01-15T02:10:04.801Z,98743.41
2024-01-15T02:12:32.203Z,98738.03
2024-01-15T02:14:59.340Z,98740.53
2024-01-15T02:17:26.524Z,98735.06
2024-01-15T02:19:54.697Z,98753.63
2024-01-15T02:22:21.884Z,98749.59
2024-01-15T02:24:49.131Z,98737.50
2024-01-15T02:27:21.958Z,98724.84
2024-01-15T02:29:49.451Z,98723.69
2024-01-15T02:32:17.583Z,98723.38
2024-01-15T02:34:44.799Z,98716.72
2024-01-15T02:37:12.697Z,98715.38
2024-01-15T02:39:40.153Z,98716.41
2024-01-15T02:42:07.389Z,98714.22
2024-01-15T02:44:36.567Z,98704.56
2024-01-15T02:47:04.123Z,98703.91
2024-01-15T02:49:32.383Z,98682.72
2024-01-15T02:51:59.586Z,98678.75
2024-01-15T02:54:27.342Z,98716.62
2024-01-15T02:56:54.497Z,98715.13
2024-01-15T02:59:21.666Z,98706.25
2024-01-15T03:01:49.133Z,98696.97
2024-01-15T03:04:16.308Z,98692.44
2024-01-15T03:06:43.558Z,98679.00
2024-01-15T03:09:11.145Z,98669.66
2024-01-15T03:11:39.882Z,98660.41
2024-01-15T03:14:07.208Z,98665.41
2024-01-15T03:16:34.591Z,98666.63
2024-01-15T03:19:02.626Z,98675.41
2024-01-15T03:21:29.788Z,98665.97
2024-01-15T03:23:57.237Z,98658.81
2024-01-15T03:26:24.427Z,98666.22
2024-01-15T03:28:53.844Z,98660.47
2024-01-15T03:31:22.382Z,98646.69
2024-01-15T03:33:49.908Z,98650.53
2024-01-15T03:36:17.044Z,98651.97
2024-01-15T03:38:44.513Z,98668.66
2024-01-15T03:41:11.658Z,98667.50
2024-01-15T03:43:38.803Z,98661.44
2024-01-15T03:46:06.268Z,98680.69
2024-01-15T03:48:36.381Z,98674.91
2024-01-15T03:51:03.805Z,98669.75
2024-01-15T03:53:31.497Z,98678.28
2024-01-15T03:55:58.600Z,98685.69
2024-01-15T03:58:25.761Z,98686.44
2024-01-15T04:00:53.265Z,98672.25
2024-01-15T04:03:20.731Z,98671.38
2024-01-15T04:05:48.177Z,98681.16
2024-01-15T04:08:15.300Z,98680.22
2024-01-15T04:10:42.800Z,98679.31
2024-01-15T04:13:12.170Z,98681.72
2024-01-15T04:15:42.461Z,98665.75
2024-01-15T04:18:10.172Z,98648.88
2024-01-15T04:20:37.332Z,98642.06
2024-01-15T04:23:04.662Z,98642.91
2024-01-15T04:25:32.238Z,98635.78
2024-01-15T04:27:59.390Z,98644.72
2024-01-15T04:30:26.699Z,98623.19
2024-01-15T04:32:54.411Z,98634.69
2024-01-15T04:35:21.576Z,98648.62
2024-01-15T04:37:48.757Z,98643.38
2024-01-15T04:40:17.358Z,98637.47
2024-01-15T04:42:46.832Z,98641.81
2024-01-15T04:45:14.195Z,98629.75
2024-01-15T04:47:41.670Z,98633.62
2024-01-15T04:50:16.996Z,98630.75
2024-01-15T04:52:44.415Z,98630.47
2024-01-15T04:55:11.588Z,98627.44
2024-01-15T04:57:39.028Z,98626.69
2024-01-15T05:00:07.142Z,98633.88
2024-01-15T05:02:34.406Z,98634.53
2024-01-15T05:05:01.538Z,98631.22
2024-01-15T05:07:29.006Z,98640.12
2024-01-15T05:09:56.989Z,98646.97
2024-01-15T05:12:26.016Z,98653.41
2024-01-15T05:14:53.493Z,98644.84
2024-01-15T05:17:20.698Z,98645.91
2024-01-15T05:19:50.954Z,98638.72
2024-01-15T05:22:20.206Z,98640.28
2024-01-15T05:24:47.402Z,98639.44
2024-01-15T05:27:14.617Z,98645.13
2024-01-15T05:29:44.136Z,98656.16
2024-01-15T05:32:11.303Z,98633.56
2024-01-15T05:34:38.987Z,98635.63
2024-01-15T05:37:06.539Z,98631.38
2024-01-15T05:39:35.695Z,98638.66
2024-01-15T05:42:02.929Z,98642.00
2024-01-15T05:44:30.321Z,98641.28
2024-01-15T05:46:57.426Z,98650.97
2024-01-15T05:49:25.036Z,98650.75
2024-01-15T05:51:53.208Z,98653.09
2024-01-15T05:54:21.220Z,98650.47
2024-01-15T05:56:48.497Z,98652.34
2024-01-15T05:59:16.362Z,98649.28
2024-01-15T06:01:43.560Z,98653.25
2024-01-15T06:04:11.293Z,98641.31
2024-01-15T06:06:41.574Z,98650.59
2024-01-15T06:09:10.022Z,98655.34
2024-01-15T06:11:37.516Z,98644.47
2024-01-15T06:14:04.702Z,98638.75
2024-01-15T06:16:32.093Z,98648.78
2024-01-15T06:18:59.584Z,98654.97
2024-01-15T06:21:26.849Z,98656.91
2024-01-15T06:23:54.141Z,98657.28
2024-01-15T06:26:21.550Z,98662.75
2024-01-15T06:28:49.040Z,98654.53
2024-01-15T06:31:16.309Z,98649.88
2024-01-15T06:33:46.130Z,98655.28
2024-01-15T06:36:14.012Z,98664.81
2024-01-15T06:38:41.310Z,98667.16
2024-01-15T06:41:08.983Z,98660.19
2024-01-15T06:43:36.144Z,98668.66
2024-01-15T06:46:06.440Z,98664.25
2024-01-15T06:48:35.341Z,98662.19
2024-01-15T06:51:02.627Z,98668.78
2024-01-15T06:53:37.130Z,98669.75
2024-01-15T06:56:04.836Z,98669.91
2024-01-15T06:58:35.130Z,98671.72
2024-01-15T07:01:03.179Z,98679.47
2024-01-15T07:03:30.986Z,98686.84
2024-01-15T07:05:58.179Z,98682.63
2024-01-15T07:08:25.312Z,98687.88
2024-01-15T07:10:53.346Z,98690.75
2024-01-15T07:13:21.011Z,98690.00
2024-01-15T07:15:48.261Z,98702.97
2024-01-15T07:18:16.111Z,98700.34
2024-01-15T07:20:43.348Z,98694.00
2024-01-15T07:23:10.517Z,98699.34
2024-01-15T07:25:38.028Z,98692.06
2024-01-15T07:28:06.093Z,98705.37
2024-01-15T07:30:33.438Z,98706.78
2024-01-15T07:33:01.100Z,98703.91
2024-01-15T07:35:28.348Z,98698.09
2024-01-15T07:37:56.987Z,98698.00
2024-01-15T07:40:25.996Z,98711.19
2024-01-15T07:42:53.677Z,98694.53
2024-01-15T07:45:20.922Z,98697.34
2024-01-15T07:47:48.634Z,98705.19
2024-01-15T07:50:16.899Z,98695.19
2024-01-15T07:52:44.088Z,98695.50
2024-01-15T07:55:12.662Z,98702.28
2024-01-15T07:57:39.903Z,98708.28
2024-01-15T08:00:07.737Z,98717.91
2024-01-15T08:02:37.628Z,98715.47
2024-01-15T08:05:06.833Z,98715.88
2024-01-15T08:07:34.042Z,98725.66
2024-01-15T08:10:04.535Z,98723.22
2024-01-15T08:12:31.714Z,98733.41
2024-01-15T08:14:59.636Z,98740.12
2024-01-15T08:17:29.938Z,98746.72
2024-01-15T08:19:57.927Z,98748.78
2024-01-15T08:22:25.261Z,98738.72
2024-01-15T08:24:57.588Z,98746.66
2024-01-15T08:27:25.369Z,98729.63
2024-01-15T08:32:51.157Z,98739.53
2024-01-15T08:35:18.684Z,98748.44
2024-01-15T08:37:48.010Z,98741.06
2024-01-15T08:40:16.897Z,98752.16
2024-01-15T08:42:45.071Z,98744.19
2024-01-15T08:45:12.728Z,98737.88
2024-01-15T08:47:41.390Z,98738.16
2024-01-15T08:50:11.519Z,98733.22
2024-01-15T08:52:38.877Z,98735.75
2024-01-15T08:55:06.476Z,98736.37
2024-01-15T08:57:34.159Z,98744.09
2024-01-15T09:00:01.543Z,98749.44
2024-01-15T09:02:29.002Z,98750.28
2024-01-15T09:04:56.543Z,98737.19
2024-01-15T09:07:26.582Z,98764.38
2024-01-15T09:09:54.346Z,98759.91
2024-01-15T09:12:23.508Z,98751.97
2024-01-15T09:21:17.423Z,98744.37
2024-01-15T09:23:45.796Z,98730.50
2024-01-15T09:26:16.457Z,98737.81
2024-01-15T09:28:44.911Z,98729.91
2024-01-15T09:31:13.961Z,98733.63
2024-01-15T09:33:43.983Z,98732.47
2024-01-15T09:36:13.919Z,98734.00
2024-01-15T09:38:43.128Z,98735.56
2024-01-15T09:41:11.389Z,98730.81
2024-01-15T09:43:39.894Z,98716.12
2024-01-15T09:46:10.657Z,98715.28
2024-01-15T09:48:40.020Z,98705.94
2024-01-15T09:51:11.697Z,98712.81
2024-01-15T09:53:43.105Z,98707.28
2024-01-15T09:56:11.819Z,98697.31
2024-01-15T09:58:43.802Z,98695.31
2024-01-15T10:01:16.725Z,98691.09
2024-01-15T10:03:45.550Z,98692.63
2024-01-15T10:09:44.307Z,98699.59
2024-01-15T10:12:12.808Z,98691.28
2024-01-15T10:21:30.155Z,98674.72
2024-01-15T10:24:01.553Z,98683.50
2024-01-15T10:26:29.658Z,98667.84
2024-01-15T10:28:57.802Z,98667.59
2024-01-15T10:31:30.370Z,98660.00
2024-01-15T10:34:12.023Z,98663.09
2024-01-15T10:36:42.097Z,98656.66
2024-01-15T10:39:09.640Z,98647.31
2024-01-15T10:41:38.213Z,98647.16
2024-01-15T10:44:06.196Z,98649.16
2024-01-15T10:46:34.236Z,98654.91
2024-01-15T10:49:04.000Z,98658.78
2024-01-15T10:51:32.080Z,98647.69
2024-01-15T10:54:01.330Z,98649.81
2024-01-15T10:56:29.426Z,98639.31
2024-01-15T10:59:00.636Z,98636.16
2024-01-15T11:01:30.969Z,98636.69
2024-01-15T11:04:05.269Z,98635.88
2024-01-15T11:06:49.963Z,98635.09
2024-01-15T11:09:19.910Z,98642.34
2024-01-15T11:11:48.371Z,98648.12
2024-01-15T11:14:35.134Z,98654.13
2024-01-15T11:17:04.969Z,98653.31
2024-01-15T11:19:47.149Z,98658.97
2024-01-15T11:22:31.100Z,98650.19
2024-01-15T11:25:14.687Z,98651.41
2024-01-15T11:27:44.565Z,98653.03
2024-01-15T11:30:14.282Z,98649.28
2024-01-15T11:32:42.879Z,98646.34
2024-01-15T11:35:12.838Z,98641.56
2024-01-15T11:37:55.836Z,98640.81
2024-01-15T11:40:38.975Z,98627.16
2024-01-15T11:43:08.286Z,98624.03
2024-01-15T11:45:36.487Z,98623.31
2024-01-15T11:48:19.741Z,98623.31
2024-01-15T11:50:50.991Z,98623.19
2024-01-15T11:53:37.311Z,98609.06
2024-01-15T11:56:09.709Z,98595.22
2024-01-15T11:58:38.660Z,98586.75
2024-01-15T12:01:06.301Z,98590.59
2024-01-15T12:03:34.991Z,98595.81
2024-01-15T12:06:05.044Z,98606.53
2024-01-15T12:08:32.942Z,98605.50
2024-01-15T12:11:00.700Z,98603.59
2024-01-15T12:16:58.081Z,98588.69
2024-01-15T12:19:26.371Z,98575.66
2024-01-15T12:21:54.599Z,98569.50
2024-01-15T12:24:23.030Z,98582.66
2024-01-15T12:26:52.404Z,98564.06
2024-01-15T12:29:20.186Z,98566.69
2024-01-15T12:31:49.748Z,98550.59
2024-01-15T12:34:19.054Z,98555.16
2024-01-15T12:36:49.962Z,98557.78
2024-01-15T12:39:22.071Z,98545.22
2024-01-15T12:41:49.919Z,98549.78
2024-01-15T12:44:20.525Z,98560.75
2024-01-15T12:46:49.416Z,98558.00
2024-01-15T12:49:19.040Z,98566.00
2024-01-15T12:51:58.685Z,98555.25
2024-01-15T12:54:27.610Z,98554.66
2024-01-15T12:56:56.107Z,98558.75
2024-01-15T12:59:23.847Z,98552.13
2024-01-15T13:01:51.973Z,98561.06
2024-01-15T13:04:26.838Z,98556.81
2024-01-15T13:06:54.830Z,98553.22
2024-01-15T13:09:23.615Z,98552.63
2024-01-15T13:11:51.394Z,98546.16
2024-01-15T13:14:19.339Z,98544.69
2024-01-15T13:16:48.795Z,98549.09
2024-01-15T13:19:17.186Z,98539.91
2024-01-15T13:21:45.316Z,98536.34
2024-01-15T13:24:13.579Z,98541.47
2024-01-15T13:26:41.735Z,98542.09
2024-01-15T13:29:12.512Z,98545.00
2024-01-15T13:31:40.526Z,98545.69
2024-01-15T13:34:08.716Z,98554.66
2024-01-15T13:36:36.441Z,98560.16
2024-01-15T13:39:04.411Z,98559.28
2024-01-15T13:41:34.604Z,98556.53
2024-01-15T13:44:02.317Z,98564.25
2024-01-15T13:46:30.860Z,98565.12
2024-01-15T13:48:58.555Z,98567.63
2024-01-15T13:51:26.240Z,98566.81
2024-01-15T13:53:54.573Z,98562.41
2024-01-15T13:56:22.283Z,98552.84
2024-01-15T13:58:55.627Z,98555.84
2024-01-15T14:01:23.924Z,98562.78
2024-01-15T14:03:52.038Z,98559.47
2024-01-15T14:06:19.912Z,98553.56
2024-01-15T14:08:48.008Z,98552.09
2024-01-15T14:11:16.101Z,98561.50
2024-01-15T14:13:43.853Z,98549.62
2024-01-15T14:16:13.155Z,98555.03
2024-01-15T14:18:41.580Z,98548.38
2024-01-15T14:21:09.451Z,98552.31
2024-01-15T14:23:37.185Z,98556.72
2024-01-15T14:26:06.887Z,98559.31
2024-01-15T14:28:34.928Z,98563.97
2024-01-15T14:31:02.884Z,98559.25
2024-01-15T14:33:31.089Z,98560.25
2024-01-15T14:36:01.613Z,98557.25
2024-01-15T14:38:29.287Z,98555.00
2024-01-15T14:41:03.064Z,98558.97
2024-01-15T14:43:31.271Z,98555.88
2024-01-15T14:45:59.858Z,98555.03
2024-01-15T14:48:31.455Z,98555.88
2024-01-15T14:50:59.492Z,98567.00
2024-01-15T14:53:27.481Z,98558.25
2024-01-15T14:55:55.745Z,98563.38
2024-01-15T14:58:26.012Z,98554.75
2024-01-15T15:00:54.150Z,98563.28
2024-01-15T15:03:22.192Z,98550.06
2024-01-15T15:05:51.046Z,98553.31
2024-01-15T15:08:18.773Z,98551.03
2024-01-15T15:10:46.982Z,98538.50
2024-01-15T15:13:18.135Z,98536.84
2024-01-15T15:19:16.640Z,98534.81
2024-01-15T15:21:44.803Z,98538.03
2024-01-15T15:24:13.048Z,98541.00
2024-01-15T15:27:01.863Z,98538.56
2024-01-15T15:29:29.961Z,98542.12
2024-01-15T15:31:58.246Z,98551.84
2024-01-15T15:34:25.865Z,98553.84
2024-01-15T15:36:53.474Z,98546.28
2024-01-15T15:39:22.800Z,98549.47
2024-01-15T15:41:51.012Z,98546.28
2024-01-15T15:44:18.991Z,98551.25
2024-01-15T15:46:46.820Z,98554.25
2024-01-15T15:49:16.704Z,98565.16
2024-01-15T15:51:46.563Z,98568.00
2024-01-15T15:54:15.783Z,98562.44
2024-01-15T15:56:48.766Z,98570.81
2024-01-15T15:59:19.168Z,98576.31
2024-01-15T16:01:49.071Z,98583.03
2024-01-15T16:04:19.063Z,98582.00
2024-01-15T16:06:49.963Z,98596.94
2024-01-15T16:09:17.603Z,98594.56
2024-01-15T16:11:45.340Z,98597.16
2024-01-15T16:14:13.066Z,98600.97
2024-01-15T16:23:12.181Z,98600.72
2024-01-15T16:23:25.425Z,98604.28
2024-01-15T16:23:40.971Z,98609.16
2024-01-15T16:25:06.513Z,98613.06
2024-01-15T16:27:34.592Z,98608.06
2024-01-15T16:30:20.637Z,98615.66
2024-01-15T16:33:00.835Z,98625.28
2024-01-15T16:35:29.411Z,98627.41
2024-01-15T16:37:57.794Z,98638.19
2024-01-15T16:40:25.493Z,98645.28
2024-01-15T16:42:55.875Z,98651.31
2024-01-15T16:45:25.400Z,98645.00
2024-01-15T16:47:53.179Z,98644.53
2024-01-15T16:50:20.928Z,98649.69
2024-01-15T16:52:50.362Z,98661.53
2024-01-15T16:55:18.420Z,98659.87
2024-01-15T16:57:46.046Z,98658.13
2024-01-15T17:00:14.597Z,98660.75
2024-01-15T17:02:42.549Z,98649.50
2024-01-15T17:05:11.021Z,98648.91
2024-01-15T17:07:41.364Z,98639.81
2024-01-15T17:10:10.790Z,98643.69
2024-01-15T17:12:39.651Z,98648.06
2024-01-15T17:15:08.976Z,98649.75
2024-01-15T17:17:40.104Z,98644.91
2024-01-15T17:20:10.132Z,98644.53
2024-01-15T17:22:38.122Z,98634.09
2024-01-15T17:25:07.293Z,98633.28
2024-01-15T17:27:35.356Z,98639.53
2024-01-15T17:30:03.086Z,98640.72
2024-01-15T17:32:30.818Z,98645.19
2024-01-15T17:34:59.710Z,98656.81
2024-01-15T17:37:30.106Z,98648.16
2024-01-15T17:39:58.499Z,98651.16
2024-01-15T17:42:26.685Z,98651.63
2024-01-15T17:44:54.472Z,98643.13
2024-01-15T17:47:22.412Z,98638.47
2024-01-15T17:49:50.777Z,98636.94
2024-01-15T17:52:18.715Z,98648.44
2024-01-15T17:54:46.604Z,98655.31
2024-01-15T17:57:16.776Z,98656.00
2024-01-15T17:59:45.239Z,98652.69
2024-01-15T18:02:13.065Z,98659.41
2024-01-15T18:04:41.528Z,98657.28
2024-01-15T18:07:09.178Z,98652.56
2024-01-15T18:09:38.671Z,98646.88
2024-01-15T18:12:07.516Z,98660.37
2024-01-15T18:14:37.602Z,98681.47
2024-01-15T18:20:39.471Z,98650.66
2024-01-15T18:26:38.173Z,98662.94
2024-01-15T18:29:06.124Z,98689.00
2024-01-15T18:31:35.251Z,98688.78
2024-01-15T18:34:04.829Z,98700.72
2024-01-15T18:36:33.784Z,98705.81
2024-01-15T18:39:07.096Z,98708.44
2024-01-15T18:41:38.417Z,98716.88
2024-01-15T18:44:05.983Z,98724.12
2024-01-15T18:46:34.080Z,98724.88
2024-01-15T18:49:09.290Z,98737.34
2024-01-15T18:51:37.004Z,98728.59
2024-01-15T18:54:06.434Z,98721.66
2024-01-15T18:56:41.796Z,98724.50
2024-01-15T18:59:10.052Z,98723.28
2024-01-15T19:01:40.961Z,98728.69
2024-01-15T19:04:13.073Z,98718.06
2024-01-15T19:06:42.898Z,98699.84
2024-01-15T19:09:12.034Z,98701.94
2024-01-15T19:11:41.540Z,98697.25
2024-01-15T19:14:09.714Z,98712.03
2024-01-15T19:16:37.599Z,98718.53
2024-01-15T19:19:05.417Z,98723.94
2024-01-15T19:21:34.314Z,98731.44
2024-01-15T19:24:03.608Z,98712.06
2024-01-15T19:26:31.549Z,98716.22
2024-01-15T19:29:03.089Z,98711.16
2024-01-15T19:31:31.307Z,98698.37
2024-01-15T19:34:01.108Z,98697.06
2024-01-15T19:36:29.397Z,98690.78
2024-01-15T19:38:57.104Z,98703.81
2024-01-15T19:41:25.508Z,98717.78
2024-01-15T19:43:54.004Z,98713.31
2024-01-15T19:46:22.576Z,98713.13
2024-01-15T19:48:50.868Z,98714.56
2024-01-15T19:51:23.617Z,98721.06
2024-01-15T19:53:54.411Z,98721.69
2024-01-15T19:56:22.962Z,98727.34
2024-01-15T19:58:52.932Z,98731.47
2024-01-15T20:01:22.514Z,98729.06
2024-01-15T20:03:51.819Z,98735.87
2024-01-15T20:06:20.417Z,98739.97
2024-01-15T20:12:02.430Z,98743.09
2024-01-15T20:14:31.920Z,98758.44
2024-01-15T20:17:01.150Z,98768.84
2024-01-15T20:19:29.333Z,98777.78
2024-01-15T20:25:35.221Z,98777.81
2024-01-15T20:31:34.748Z,98776.97
2024-01-15T20:34:02.796Z,98772.78
2024-01-15T20:36:34.918Z,98772.28
2024-01-15T20:39:04.003Z,98786.63
2024-01-15T20:41:36.775Z,98789.66
2024-01-15T20:44:06.270Z,98785.19
2024-01-15T20:49:52.188Z,98763.63
2024-01-15T20:52:22.543Z,98737.63
2024-01-15T20:54:52.783Z,98747.16
2024-01-15T20:57:29.270Z,98741.44
2024-01-15T21:00:00.333Z,98744.06
2024-01-15T21:02:28.870Z,98744.25
2024-01-15T21:04:56.616Z,98764.78
2024-01-15T21:07:24.847Z,98770.50
2024-01-15T21:09:53.014Z,98778.00
2024-01-15T21:12:22.845Z,98793.59
2024-01-15T21:14:50.787Z,98793.00
2024-01-15T21:17:19.137Z,98786.97
2024-01-15T21:19:47.846Z,98781.13
2024-01-15T21:22:17.052Z,98785.72
2024-01-15T21:24:45.568Z,98802.66
2024-01-15T21:27:13.219Z,98798.22
2024-01-15T21:29:40.951Z,98803.09
2024-01-15T21:32:08.961Z,98798.09
2024-01-15T21:34:36.731Z,98802.47
2024-01-15T21:37:06.003Z,98797.69
2024-01-15T21:39:35.000Z,98797.88
2024-01-15T21:42:02.622Z,98801.50
2024-01-15T21:44:30.769Z,98804.13
2024-01-15T21:46:59.456Z,98807.97
2024-01-15T21:49:27.501Z,98821.50
2024-01-15T21:51:57.028Z,98834.19
2024-01-15T21:54:25.041Z,98833.16
2024-01-15T21:56:53.334Z,98827.34
2024-01-15T21:59:21.993Z,98823.16
2024-01-15T22:01:56.192Z,98836.84
2024-01-15T22:04:24.263Z,98852.28
2024-01-15T22:06:53.461Z,98843.09
2024-01-15T22:09:26.317Z,98851.44
2024-01-15T22:11:54.313Z,98861.22
2024-01-15T22:14:23.374Z,98858.53
2024-01-15T22:16:53.360Z,98842.31
2024-01-15T22:19:21.329Z,98849.69
2024-01-15T22:21:49.706Z,98852.47
2024-01-15T22:24:18.350Z,98865.50
2024-01-15T22:26:46.623Z,98874.84
2024-01-15T22:29:14.335Z,98866.63
2024-01-15T22:31:42.395Z,98861.00
2024-01-15T22:34:12.858Z,98864.66
2024-01-15T22:36:40.692Z,98877.66
2024-01-15T22:39:08.411Z,98889.53
2024-01-15T22:41:36.384Z,98901.31
2024-01-15T22:44:04.036Z,98893.63
2024-01-15T22:46:33.338Z,98881.63
2024-01-15T22:49:01.354Z,98887.25
2024-01-15T22:51:29.047Z,98893.72
2024-01-15T22:53:56.482Z,98890.28
2024-01-15T22:56:24.456Z,98887.69
2024-01-15T22:58:52.120Z,98889.28
2024-01-15T23:01:21.721Z,98889.88
2024-01-15T23:03:49.884Z,98882.81
2024-01-15T23:06:20.068Z,98892.38
2024-01-15T23:08:49.321Z,98907.59
2024-01-15T23:11:16.812Z,98905.91
2024-01-15T23:13:44.312Z,98899.88
2024-01-15T23:16:15.198Z,98911.22
2024-01-15T23:18:43.050Z,98916.09
2024-01-15T23:21:10.771Z,98916.19
2024-01-15T23:23:38.440Z,98915.38
2024-01-15T23:26:11.660Z,98911.94
2024-01-15T23:28:41.341Z,98902.87
2024-01-15T23:31:09.258Z,98909.19
2024-01-15T23:33:36.612Z,98918.13
2024-01-15T23:36:04.933Z,98919.91
2024-01-15T23:38:32.432Z,98932.13
2024-01-15T23:40:59.894Z,98937.31
2024-01-15T23:43:27.516Z,98938.31
2024-01-15T23:45:59.752Z,98935.81
2024-01-15T23:48:34.105Z,98944.19
2024-01-15T23:51:04.278Z,98952.34
2024-01-15T23:53:31.933Z,98954.38
2024-01-15T23:56:01.899Z,98957.19
2024-01-15T23:58:29.824Z,98971.44
